createdAt,value
2022-10-19T00:01:58.418Z,0.95
2022-10-19T00:04:25.807Z,0.70
2022-10-19T00:06:54.383Z,0.45
2022-10-19T00:09:22.688Z,0.63
2022-10-19T00:11:51.020Z,0.70
2022-10-19T00:14:20.582Z,0.68
2022-10-19T00:16:49.093Z,0.63
2022-10-19T00:19:18.647Z,0.65
2022-10-19T00:21:46.552Z,0.95
2022-10-19T00:24:15.551Z,0.60
2022-10-19T00:26:43.122Z,0.82
2022-10-19T00:29:11.205Z,0.70
2022-10-19T00:31:39.057Z,0.82
2022-10-19T00:34:06.611Z,0.77
2022-10-19T00:36:36.037Z,0.75
2022-10-19T00:39:05.854Z,0.75
2022-10-19T00:41:36.635Z,0.60
2022-10-19T00:44:06.423Z,0.55
2022-10-19T00:46:36.278Z,0.77
2022-10-19T00:49:10.007Z,0.88
2022-10-19T00:51:42.566Z,0.70
2022-10-19T00:54:10.663Z,0.70
2022-10-19T00:56:42.903Z,0.90
2022-10-19T00:59:12.381Z,0.70
2022-10-19T01:01:39.826Z,0.60
2022-10-19T01:04:07.173Z,0.77
2022-10-19T01:06:35.413Z,0.60
2022-10-19T01:09:03.115Z,0.60
2022-10-19T01:11:39.882Z,0.77
2022-10-19T01:14:25.131Z,0.55
2022-10-19T01:17:04.501Z,0.80
2022-10-19T01:20:00.213Z,0.65
2022-10-19T01:22:36.706Z,0.50
2022-10-19T01:25:20.308Z,0.77
2022-10-19T01:28:18.571Z,0.80
2022-10-19T01:30:53.276Z,0.60
2022-10-19T01:33:32.793Z,0.90
2022-10-19T01:36:08.347Z,0.55
2022-10-19T01:38:42.191Z,0.65
2022-10-19T01:41:16.379Z,0.30
2022-10-19T01:43:50.873Z,0.55
2022-10-19T01:46:23.873Z,0.50
2022-10-19T01:48:56.519Z,0.68
2022-10-19T01:51:28.523Z,0.63
2022-10-19T01:53:59.941Z,0.63
2022-10-19T01:56:29.495Z,0.50
2022-10-19T01:59:00.444Z,0.90
2022-10-19T02:01:33.652Z,0.80
2022-10-19T02:04:02.548Z,1.05
2022-10-19T02:06:30.573Z,1.13
2022-10-19T02:08:57.844Z,1.08
2022-10-19T02:11:25.427Z,1.38
2022-10-19T02:13:58.629Z,1.08
2022-10-19T02:16:32.690Z,1.25
2022-10-19T02:19:01.726Z,1.08
2022-10-19T02:21:29.294Z,1.20
2022-10-19T02:23:56.614Z,0.77
2022-10-19T02:26:24.002Z,1.08
2022-10-19T02:28:51.631Z,1.20
2022-10-19T02:31:18.833Z,1.15
2022-10-19T02:33:47.719Z,1.20
2022-10-19T02:36:15.202Z,0.98
2022-10-19T02:38:42.583Z,1.75
2022-10-19T02:41:16.163Z,1.40
2022-10-19T02:43:49.007Z,1.20
2022-10-19T02:46:21.878Z,0.77
2022-10-19T02:48:51.962Z,0.80
2022-10-19T02:51:34.111Z,1.10
2022-10-19T02:54:05.017Z,1.00
2022-10-19T02:56:33.681Z,1.20
2022-10-19T02:59:01.056Z,1.10
2022-10-19T03:01:28.290Z,1.10
2022-10-19T03:03:57.044Z,0.80
2022-10-19T03:06:24.443Z,0.50
2022-10-19T03:08:52.073Z,0.70
2022-10-19T03:11:19.707Z,1.00
2022-10-19T03:16:15.265Z,0.93
2022-10-19T03:18:42.561Z,0.70
2022-10-19T03:21:13.436Z,1.15
2022-10-19T03:23:41.274Z,1.10
2022-10-19T03:26:12.494Z,0.80
2022-10-19T03:28:39.955Z,1.27
2022-10-19T03:31:07.267Z,1.20
2022-10-19T03:33:34.760Z,0.80
2022-10-19T03:36:21.912Z,1.02
2022-10-19T03:38:50.940Z,1.25
2022-10-19T03:41:18.523Z,1.45
2022-10-19T03:43:45.815Z,1.63
2022-10-19T03:46:13.275Z,1.60
2022-10-19T03:48:40.723Z,1.92
2022-10-19T03:51:09.867Z,1.70
2022-10-19T03:53:40.618Z,1.83
2022-10-19T03:56:11.791Z,1.35
2022-10-19T03:58:40.407Z,1.70
2022-10-19T04:01:10.823Z,2.10
2022-10-19T04:03:38.748Z,1.83
2022-10-19T04:06:07.977Z,1.60
2022-10-19T04:08:35.485Z,2.03
2022-10-19T04:11:05.720Z,1.45
2022-10-19T04:13:33.735Z,2.50
2022-10-19T04:16:01.820Z,2.33
2022-10-19T04:18:29.201Z,1.48
2022-10-19T04:20:57.851Z,2.05
2022-10-19T04:23:27.689Z,2.00
2022-10-19T04:26:00.137Z,1.83
2022-10-19T04:30:56.643Z,1.40
2022-10-19T04:33:24.279Z,1.65
2022-10-19T04:35:51.631Z,2.03
2022-10-19T04:38:18.811Z,1.17
2022-10-19T04:40:45.988Z,1.70
2022-10-19T04:43:13.512Z,2.15
2022-10-19T04:45:42.212Z,2.08
2022-10-19T04:48:09.526Z,1.73
2022-10-19T04:50:36.754Z,1.83
2022-10-19T04:53:05.416Z,1.92
2022-10-19T04:55:32.643Z,1.67
2022-10-19T04:57:59.920Z,2.22
2022-10-19T05:00:27.286Z,2.40
2022-10-19T05:02:56.026Z,2.03
2022-10-19T05:05:24.496Z,2.58
2022-10-19T05:07:51.773Z,2.72
2022-10-19T05:10:18.957Z,2.58
2022-10-19T05:12:46.216Z,2.60
2022-10-19T05:15:13.466Z,2.00
2022-10-19T05:17:40.956Z,2.22
2022-10-19T05:20:13.345Z,2.83
2022-10-19T05:25:08.786Z,2.20
2022-10-19T05:27:36.447Z,2.20
2022-10-19T05:30:04.405Z,2.00
2022-10-19T05:32:31.797Z,1.08
2022-10-19T05:34:59.056Z,2.60
2022-10-19T05:37:27.894Z,2.25
2022-10-19T05:39:55.744Z,3.67
2022-10-19T05:42:23.030Z,3.97
2022-10-19T05:44:50.432Z,2.42
2022-10-19T05:47:17.768Z,2.67
2022-10-19T05:49:45.084Z,4.85
2022-10-19T05:52:13.186Z,5.10
2022-10-19T05:54:41.945Z,5.20
2022-10-19T05:57:09.217Z,4.32
2022-10-19T05:59:36.423Z,5.57
2022-10-19T06:02:03.921Z,4.47
2022-10-19T06:04:33.015Z,5.78
2022-10-19T06:07:01.633Z,5.00
2022-10-19T06:09:29.020Z,4.80
2022-10-19T06:11:57.748Z,7.05
2022-10-19T06:14:25.044Z,6.75
2022-10-19T06:16:52.263Z,5.05
2022-10-19T06:19:19.493Z,5.47
2022-10-19T06:21:46.839Z,4.30
2022-10-19T06:24:14.345Z,3.58
2022-10-19T06:26:41.830Z,3.25
2022-10-19T06:29:11.163Z,2.78
2022-10-19T06:31:38.726Z,3.33
2022-10-19T06:34:06.459Z,2.10
2022-10-19T06:36:34.599Z,2.00
2022-10-19T06:39:02.223Z,3.28
2022-10-19T06:41:31.289Z,3.03
2022-10-19T06:44:13.992Z,2.38
2022-10-19T06:46:41.407Z,1.92
2022-10-19T06:49:12.701Z,2.15
2022-10-19T06:51:40.826Z,2.90
2022-10-19T06:54:08.223Z,2.25
2022-10-19T06:56:35.533Z,2.40
2022-10-19T06:59:02.819Z,2.05
2022-10-19T07:01:31.783Z,3.03
2022-10-19T07:03:59.103Z,2.58
2022-10-19T07:06:28.012Z,3.17
2022-10-19T07:08:55.346Z,2.72
2022-10-19T07:11:23.369Z,2.95
2022-10-19T07:13:52.431Z,2.90
2022-10-19T07:16:21.742Z,2.65
2022-10-19T07:18:52.409Z,1.98
2022-10-19T07:21:21.424Z,2.35
2022-10-19T07:23:49.402Z,2.95
2022-10-19T07:26:18.620Z,2.92
2022-10-19T07:28:48.201Z,2.95
2022-10-19T07:31:20.742Z,2.95
2022-10-19T07:33:51.760Z,3.70
2022-10-19T07:36:20.376Z,3.03
2022-10-19T07:38:47.894Z,2.33
2022-10-19T07:41:17.592Z,3.13
2022-10-19T07:43:46.865Z,2.53
2022-10-19T07:46:16.350Z,2.83
2022-10-19T07:48:44.417Z,2.50
2022-10-19T07:51:13.342Z,1.52
2022-10-19T07:53:42.312Z,2.30
2022-10-19T07:56:11.889Z,2.58
2022-10-19T07:58:40.621Z,2.47
2022-10-19T08:01:10.270Z,2.40
2022-10-19T08:06:26.444Z,2.25
2022-10-19T08:08:56.068Z,2.45
2022-10-19T08:11:25.951Z,2.60
2022-10-19T08:13:54.273Z,2.00
2022-10-19T08:16:24.732Z,2.72
2022-10-19T08:18:53.512Z,2.03
2022-10-19T08:21:20.860Z,1.75
2022-10-19T08:23:48.104Z,2.65
2022-10-19T08:26:16.699Z,2.38
2022-10-19T08:28:43.921Z,2.30
2022-10-19T08:31:13.611Z,2.78
2022-10-19T08:33:41.414Z,2.67
2022-10-19T08:36:10.606Z,2.72
2022-10-19T08:38:38.678Z,2.53
2022-10-19T08:41:18.681Z,3.20
2022-10-19T08:43:59.807Z,2.67
2022-10-19T08:46:35.875Z,2.88
2022-10-19T08:49:04.505Z,3.10
2022-10-19T08:51:38.515Z,3.00
2022-10-19T08:54:14.352Z,3.05
2022-10-19T08:56:52.013Z,2.90
2022-10-19T08:59:36.577Z,3.05
2022-10-19T09:02:14.377Z,2.92
2022-10-19T09:04:46.243Z,3.75
2022-10-19T09:07:26.979Z,3.78
2022-10-19T09:09:58.161Z,4.07
2022-10-19T09:12:36.121Z,3.63
2022-10-19T09:15:10.806Z,2.75
2022-10-19T09:17:38.424Z,2.95
2022-10-19T09:20:17.645Z,3.65
2022-10-19T09:22:45.111Z,3.72
2022-10-19T09:25:17.776Z,2.92
2022-10-19T09:27:48.231Z,3.53
2022-10-19T09:30:20.274Z,3.67
2022-10-19T09:32:49.160Z,3.53
2022-10-19T09:35:25.028Z,3.67
2022-10-19T09:37:52.857Z,3.47
2022-10-19T09:40:23.533Z,3.72
2022-10-19T09:42:58.296Z,4.25
2022-10-19T09:45:35.199Z,4.10
2022-10-19T09:48:12.822Z,3.97
2022-10-19T09:50:43.940Z,3.83
2022-10-19T09:53:19.150Z,3.75
2022-10-19T09:55:58.029Z,4.75
2022-10-19T09:58:30.466Z,3.72
2022-10-19T10:01:03.147Z,4.88
2022-10-19T10:03:32.463Z,3.42
2022-10-19T10:06:04.106Z,3.95
2022-10-19T10:08:34.679Z,3.55
2022-10-19T10:11:08.633Z,3.55
2022-10-19T10:13:38.741Z,3.13
2022-10-19T10:16:11.304Z,2.78
2022-10-19T10:18:51.187Z,3.75
2022-10-19T10:21:25.485Z,4.00
2022-10-19T10:24:02.671Z,2.92
2022-10-19T10:26:30.038Z,3.25
2022-10-19T10:29:00.663Z,3.25
2022-10-19T10:31:31.067Z,3.42
2022-10-19T10:34:10.975Z,2.67
2022-10-19T10:36:51.325Z,2.55
2022-10-19T10:39:18.662Z,2.00
2022-10-19T10:41:49.186Z,2.90
2022-10-19T10:44:22.006Z,3.25
2022-10-19T10:46:56.476Z,2.05
2022-10-19T10:49:27.128Z,2.22
2022-10-19T10:51:57.244Z,2.58
2022-10-19T10:54:26.438Z,2.90
2022-10-19T10:57:16.703Z,3.83
2022-10-19T10:59:56.447Z,3.72
2022-10-19T11:02:34.942Z,3.88
2022-10-19T11:05:07.873Z,4.60
2022-10-19T11:07:36.894Z,4.07
2022-10-19T11:10:12.530Z,4.82
2022-10-19T11:12:45.401Z,4.65
2022-10-19T11:15:18.971Z,5.30
2022-10-19T11:17:57.402Z,5.28
2022-10-19T11:20:29.758Z,4.32
2022-10-19T11:23:07.531Z,5.07
2022-10-19T11:25:46.324Z,3.90
2022-10-19T11:28:26.261Z,4.13
2022-10-19T11:31:03.233Z,3.63
2022-10-19T11:33:47.606Z,3.72
2022-10-19T11:36:27.671Z,3.60
2022-10-19T11:39:06.264Z,2.67
2022-10-19T11:41:39.482Z,3.78
2022-10-19T11:44:27.042Z,3.50
2022-10-19T11:47:09.213Z,3.15
2022-10-19T11:49:51.035Z,3.00
2022-10-19T11:52:27.573Z,3.25
2022-10-19T11:55:11.474Z,3.78
2022-10-19T11:57:48.872Z,3.22
2022-10-19T12:00:37.508Z,3.58
2022-10-19T12:03:45.023Z,3.42
2022-10-19T12:06:22.591Z,3.78
2022-10-19T12:09:05.025Z,3.88
2022-10-19T12:11:49.468Z,4.30
2022-10-19T12:14:21.044Z,4.47
2022-10-19T12:16:52.156Z,4.03
2022-10-19T12:19:23.113Z,4.70
2022-10-19T12:21:55.387Z,4.75
2022-10-19T12:24:25.657Z,4.18
2022-10-19T12:26:55.392Z,4.10
2022-10-19T12:29:26.020Z,4.90
2022-10-19T12:31:55.707Z,4.70
2022-10-19T12:34:31.597Z,4.45
2022-10-19T12:37:07.137Z,4.90
2022-10-19T12:39:42.985Z,3.95
2022-10-19T12:42:22.880Z,4.80
2022-10-19T12:45:18.441Z,4.93
2022-10-19T12:48:23.038Z,3.75
2022-10-19T12:51:12.288Z,4.53
2022-10-19T12:53:44.497Z,4.40
2022-10-19T12:56:20.357Z,5.30
2022-10-19T12:58:53.225Z,3.95
2022-10-19T13:01:24.521Z,4.63
2022-10-19T13:04:06.568Z,4.20
2022-10-19T13:06:36.962Z,4.57
2022-10-19T13:09:08.207Z,4.43
2022-10-19T13:11:36.519Z,3.63
2022-10-19T13:14:06.563Z,3.85
2022-10-19T13:17:07.643Z,3.92
2022-10-19T13:19:35.251Z,3.83
2022-10-19T13:22:29.054Z,4.05
2022-10-19T13:25:28.053Z,3.50
2022-10-19T13:28:00.336Z,3.35
2022-10-19T13:31:06.263Z,4.03
2022-10-19T13:33:48.554Z,3.30
2022-10-19T13:36:17.413Z,3.55
2022-10-19T13:38:46.786Z,3.35
2022-10-19T13:41:19.126Z,3.85
2022-10-19T13:44:06.942Z,3.20
2022-10-19T13:47:02.482Z,3.95
2022-10-19T13:49:53.605Z,3.08
2022-10-19T13:52:45.356Z,3.90
2022-10-19T13:55:57.085Z,3.00
2022-10-19T13:59:06.747Z,3.22
2022-10-19T14:01:48.600Z,3.30
2022-10-19T14:04:28.235Z,3.25
2022-10-19T14:07:01.313Z,3.17
2022-10-19T14:09:48.377Z,3.15
2022-10-19T14:12:23.447Z,3.35
2022-10-19T14:14:53.825Z,3.28
2022-10-19T14:17:24.747Z,4.18
2022-10-19T14:19:55.470Z,2.67
2022-10-19T14:22:30.031Z,3.42
2022-10-19T14:25:02.381Z,2.95
2022-10-19T14:27:31.697Z,3.53
2022-10-19T14:30:01.075Z,3.10
2022-10-19T14:32:30.202Z,3.83
2022-10-19T14:37:36.938Z,2.75
2022-10-19T14:40:07.756Z,3.10
2022-10-19T14:42:40.681Z,2.88
2022-10-19T14:45:15.908Z,2.20
2022-10-19T14:47:58.652Z,2.90
2022-10-19T14:50:43.056Z,3.55
2022-10-19T14:53:27.516Z,3.90
2022-10-19T14:55:58.477Z,3.25
2022-10-19T14:58:27.360Z,3.15
2022-10-19T15:00:56.479Z,2.95
2022-10-19T15:03:27.263Z,3.28
2022-10-19T15:05:59.107Z,4.25
2022-10-19T15:08:37.487Z,5.32
2022-10-19T15:11:06.625Z,2.75
2022-10-19T15:13:40.508Z,3.08
2022-10-19T15:16:34.676Z,3.22
2022-10-19T15:19:06.041Z,3.05
2022-10-19T15:21:33.756Z,3.03
2022-10-19T15:24:09.265Z,3.58
2022-10-19T15:26:36.599Z,2.92
2022-10-19T15:29:18.653Z,3.30
2022-10-19T15:31:47.287Z,2.50
2022-10-19T15:34:24.601Z,2.78
2022-10-19T15:36:57.019Z,3.05
2022-10-19T15:39:42.126Z,3.38
2022-10-19T15:42:35.533Z,2.28
2022-10-19T15:45:03.384Z,2.47
2022-10-19T15:47:32.359Z,2.65
2022-10-19T15:50:01.739Z,2.97
2022-10-19T15:52:33.721Z,2.45
2022-10-19T15:55:02.197Z,2.75
2022-10-19T15:57:33.181Z,2.67
2022-10-19T16:00:03.619Z,2.38
2022-10-19T16:02:32.942Z,3.08
2022-10-19T16:05:00.211Z,2.83
2022-10-19T16:07:29.718Z,2.80
2022-10-19T16:09:57.493Z,2.00
2022-10-19T16:12:26.489Z,1.60
2022-10-19T16:14:53.946Z,2.20
2022-10-19T16:17:21.638Z,2.50
2022-10-19T16:19:50.553Z,2.45
2022-10-19T16:22:18.133Z,2.60
2022-10-19T16:24:45.444Z,2.33
2022-10-19T16:27:16.524Z,2.58
2022-10-19T16:29:45.715Z,3.45
2022-10-19T16:32:13.361Z,3.65
2022-10-19T16:34:41.585Z,3.15
2022-10-19T16:37:10.239Z,3.00
2022-10-19T16:39:37.797Z,4.20
2022-10-19T16:42:05.234Z,4.55
2022-10-19T16:44:32.691Z,4.07
2022-10-19T16:47:00.105Z,4.28
2022-10-19T16:49:27.541Z,4.68
2022-10-19T16:51:57.403Z,4.18
2022-10-19T16:54:27.236Z,4.68
2022-10-19T16:56:55.787Z,4.25
2022-10-19T16:59:23.232Z,4.82
2022-10-19T17:01:50.954Z,4.63
2022-10-19T17:04:18.512Z,3.85
2022-10-19T17:06:45.747Z,4.32
2022-10-19T17:12:01.850Z,3.58
2022-10-19T17:14:29.191Z,3.40
2022-10-19T17:16:56.547Z,4.30
2022-10-19T17:19:23.871Z,3.92
2022-10-19T17:21:51.357Z,3.97
2022-10-19T17:24:22.024Z,3.95
2022-10-19T17:26:50.455Z,3.35
2022-10-19T17:29:19.487Z,2.88
2022-10-19T17:31:47.524Z,2.70
2022-10-19T17:34:15.274Z,2.90
2022-10-19T17:36:44.890Z,2.75
2022-10-19T17:39:15.213Z,2.72
2022-10-19T17:41:42.512Z,2.58
2022-10-19T17:44:09.821Z,2.58
2022-10-19T17:46:38.475Z,2.47
2022-10-19T17:49:05.813Z,2.40
2022-10-19T17:51:35.386Z,3.03
2022-10-19T17:54:05.064Z,2.88
2022-10-19T17:56:32.302Z,3.00
2022-10-19T17:59:00.518Z,3.13
2022-10-19T18:01:27.844Z,2.45
2022-10-19T18:03:57.052Z,2.55
2022-10-19T18:06:26.201Z,2.78
2022-10-19T18:08:55.937Z,3.33
2022-10-19T18:11:25.077Z,2.85
2022-10-19T18:13:54.908Z,3.22
2022-10-19T18:16:23.856Z,2.88
2022-10-19T18:18:54.991Z,2.20
2022-10-19T18:21:26.004Z,2.70
2022-10-19T18:23:53.921Z,2.63
2022-10-19T18:26:23.703Z,3.10
2022-10-19T18:28:52.648Z,2.60
2022-10-19T18:31:21.474Z,2.75
2022-10-19T18:33:50.026Z,2.80
2022-10-19T18:36:17.454Z,2.75
2022-10-19T18:38:50.454Z,2.75
2022-10-19T18:41:18.382Z,1.48
2022-10-19T18:43:51.437Z,3.15
2022-10-19T18:46:19.993Z,2.35
2022-10-19T18:48:48.129Z,2.55
2022-10-19T18:51:16.019Z,2.47
2022-10-19T18:53:44.327Z,3.05
2022-10-19T18:56:15.393Z,2.53
2022-10-19T18:58:42.948Z,3.40
2022-10-19T19:01:11.965Z,2.78
2022-10-19T19:03:41.209Z,2.70
2022-10-19T19:06:11.023Z,2.20
2022-10-19T19:08:38.809Z,2.60
2022-10-19T19:11:11.420Z,2.75
2022-10-19T19:13:41.391Z,2.47
2022-10-19T19:16:09.792Z,3.25
2022-10-19T19:18:37.041Z,2.30
2022-10-19T19:21:06.368Z,2.60
2022-10-19T19:23:33.863Z,2.65
2022-10-19T19:26:03.363Z,2.55
2022-10-19T19:28:30.621Z,2.35
2022-10-19T19:31:00.127Z,2.17
2022-10-19T19:33:27.340Z,2.25
2022-10-19T19:35:54.734Z,2.35
2022-10-19T19:38:22.192Z,1.95
2022-10-19T19:40:49.477Z,2.58
2022-10-19T19:43:17.045Z,2.33
2022-10-19T19:45:44.568Z,2.72
2022-10-19T19:48:13.173Z,3.00
2022-10-19T19:50:46.598Z,3.67
2022-10-19T19:53:13.945Z,2.78
2022-10-19T19:55:41.196Z,2.38
2022-10-19T19:58:08.776Z,2.70
2022-10-19T20:00:38.674Z,4.63
2022-10-19T20:03:05.936Z,3.20
2022-10-19T20:05:34.621Z,2.78
2022-10-19T20:08:01.856Z,2.75
2022-10-19T20:10:29.304Z,3.20
2022-10-19T20:12:56.596Z,2.33
2022-10-19T20:15:24.043Z,3.67
2022-10-19T20:17:51.216Z,2.85
2022-10-19T20:20:18.734Z,2.40
2022-10-19T20:22:48.176Z,4.38
2022-10-19T20:25:15.690Z,3.60
2022-10-19T20:27:43.082Z,3.42
2022-10-19T20:30:11.527Z,3.20
2022-10-19T20:32:38.945Z,3.33
2022-10-19T20:35:07.654Z,3.60
2022-10-19T20:37:35.118Z,2.58
2022-10-19T20:40:08.619Z,3.22
2022-10-19T20:42:36.667Z,2.95
2022-10-19T20:45:04.940Z,2.17
2022-10-19T20:47:32.140Z,2.58
2022-10-19T20:49:59.463Z,2.40
2022-10-19T20:52:26.781Z,2.38
2022-10-19T20:54:54.063Z,2.72
2022-10-19T20:57:22.656Z,2.58
2022-10-19T20:59:49.980Z,2.65
2022-10-19T21:02:17.262Z,2.53
2022-10-19T21:04:44.444Z,2.75
2022-10-19T21:07:11.813Z,1.90
2022-10-19T21:09:39.091Z,2.10
2022-10-19T21:12:06.336Z,2.28
2022-10-19T21:14:35.037Z,2.17
2022-10-19T21:17:02.221Z,1.88
2022-10-19T21:19:30.183Z,2.47
2022-10-19T21:22:02.032Z,2.33
2022-10-19T21:24:32.638Z,2.13
2022-10-19T21:27:01.616Z,1.77
2022-10-19T21:29:28.922Z,2.25
2022-10-19T21:31:57.635Z,1.83
2022-10-19T21:34:27.063Z,2.08
2022-10-19T21:36:54.312Z,1.50
2022-10-19T21:39:22.265Z,2.08
2022-10-19T21:41:50.333Z,2.10
2022-10-19T21:44:18.786Z,1.90
2022-10-19T21:46:48.133Z,1.70
2022-10-19T21:49:17.097Z,1.83
2022-10-19T21:51:46.401Z,2.10
2022-10-19T21:54:16.116Z,1.92
2022-10-19T21:56:44.051Z,1.90
2022-10-19T21:59:12.517Z,1.90
2022-10-19T22:01:41.330Z,1.75
2022-10-19T22:04:12.193Z,1.67
2022-10-19T22:06:42.013Z,1.33
2022-10-19T22:09:13.312Z,1.73
2022-10-19T22:11:40.619Z,2.03
2022-10-19T22:14:07.998Z,2.13
2022-10-19T22:16:37.082Z,2.03
2022-10-19T22:19:05.295Z,2.05
2022-10-19T22:21:33.755Z,2.10
2022-10-19T22:24:04.702Z,1.90
2022-10-19T22:26:33.799Z,2.42
2022-10-19T22:29:02.139Z,1.48
2022-10-19T22:31:31.423Z,1.77
2022-10-19T22:34:00.124Z,2.03
2022-10-19T22:36:27.441Z,1.40
2022-10-19T22:38:55.238Z,1.73
2022-10-19T22:41:23.946Z,1.67
2022-10-19T22:43:51.143Z,1.75
2022-10-19T22:46:18.430Z,1.80
2022-10-19T22:48:45.854Z,1.48
2022-10-19T22:51:13.186Z,1.60
2022-10-19T22:53:40.531Z,1.73
2022-10-19T22:56:10.756Z,1.80
2022-10-19T22:58:39.853Z,1.48
2022-10-19T23:01:09.551Z,2.13
2022-10-19T23:03:39.434Z,1.70
2022-10-19T23:06:07.256Z,1.65
2022-10-19T23:08:34.520Z,1.35
2022-10-19T23:11:01.850Z,2.42
2022-10-19T23:13:29.255Z,1.80
2022-10-19T23:15:58.043Z,1.98
2022-10-19T23:18:25.333Z,2.00
2022-10-19T23:20:56.613Z,2.03
2022-10-19T23:23:24.369Z,1.65
2022-10-19T23:26:03.011Z,1.50
2022-10-19T23:28:31.441Z,1.65
2022-10-19T23:31:04.785Z,1.65
2022-10-19T23:33:32.384Z,1.85
2022-10-19T23:36:03.254Z,1.85
2022-10-19T23:38:30.622Z,1.38
2022-10-19T23:40:58.250Z,1.70
2022-10-19T23:43:25.631Z,1.90
2022-10-19T23:45:53.061Z,1.92
2022-10-19T23:48:22.081Z,1.98
2022-10-19T23:50:57.454Z,1.92
2022-10-19T23:53:25.235Z,1.90
2022-10-19T23:55:57.691Z,1.25
2022-10-19T23:58:25.065Z,1.85
